createdAt,value
2019-02-28T00:01:35.900Z,10.03
2019-02-28T00:04:07.295Z,9.70
2019-02-28T00:06:43.984Z,10.90
2019-02-28T00:09:13.682Z,9.83
2019-02-28T00:11:43.766Z,10.27
2019-02-28T00:14:13.841Z,9.80
2019-02-28T00:16:46.269Z,9.30
2019-02-28T00:19:17.360Z,9.90
2019-02-28T00:21:47.434Z,9.80
2019-02-28T00:24:27.174Z,9.80
2019-02-28T00:26:56.127Z,9.50
2019-02-28T00:29:26.207Z,9.47
2019-02-28T00:31:58.009Z,9.80
2019-02-28T00:34:27.979Z,8.33
2019-02-28T00:36:58.066Z,8.43
2019-02-28T00:39:31.442Z,9.93
2019-02-28T00:42:01.497Z,9.33
2019-02-28T00:44:31.555Z,9.57
2019-02-28T00:47:01.632Z,8.90
2019-02-28T00:49:33.419Z,10.27
2019-02-28T00:52:08.203Z,8.40
2019-02-28T00:54:43.229Z,8.30
2019-02-28T00:57:12.959Z,8.53
2019-02-28T00:59:42.738Z,7.20
2019-02-28T01:02:13.763Z,9.35
2019-02-28T01:04:47.057Z,7.80
2019-02-28T01:07:20.797Z,8.67
2019-02-28T01:09:52.496Z,8.87
2019-02-28T01:12:24.040Z,9.03
2019-02-28T01:14:54.059Z,8.13
2019-02-28T01:17:26.703Z,8.73
2019-02-28T01:20:03.280Z,9.40
2019-02-28T01:22:33.382Z,8.63
2019-02-28T01:25:06.477Z,8.17
2019-02-28T01:27:36.385Z,9.00
2019-02-28T01:30:08.221Z,8.67
2019-02-28T01:32:38.704Z,8.47
2019-02-28T01:35:12.332Z,8.33
2019-02-28T01:37:43.416Z,8.07
2019-02-28T01:40:16.162Z,8.27
2019-02-28T01:42:47.188Z,7.60
2019-02-28T01:45:18.557Z,8.47
2019-02-28T01:47:52.360Z,7.10
2019-02-28T01:50:24.230Z,7.70
2019-02-28T01:52:54.306Z,8.03
2019-02-28T01:55:24.323Z,7.37
2019-02-28T01:57:54.404Z,8.37
2019-02-28T02:00:29.190Z,8.10
2019-02-28T02:02:59.168Z,7.97
2019-02-28T02:05:29.356Z,9.43
2019-02-28T02:08:07.298Z,7.40
2019-02-28T02:10:32.154Z,8.93
2019-02-28T02:13:04.346Z,7.50
2019-02-28T02:15:39.537Z,8.30
2019-02-28T02:18:12.010Z,7.47
2019-02-28T02:20:41.331Z,6.90
2019-02-28T02:23:17.839Z,6.33
2019-02-28T02:25:44.834Z,7.47
2019-02-28T02:28:16.113Z,7.07
2019-02-28T02:30:50.507Z,6.87
2019-02-28T02:33:18.581Z,8.10
2019-02-28T02:35:49.782Z,7.23
2019-02-28T02:38:21.643Z,7.87
2019-02-28T02:40:58.944Z,8.03
2019-02-28T02:43:26.475Z,7.30
2019-02-28T02:45:56.547Z,7.53
2019-02-28T02:48:26.766Z,6.80
2019-02-28T02:50:56.888Z,7.33
2019-02-28T02:53:30.825Z,7.50
2019-02-28T02:56:03.900Z,8.43
2019-02-28T02:58:33.785Z,8.03
2019-02-28T03:01:03.931Z,8.70
2019-02-28T03:03:35.105Z,9.00
2019-02-28T03:06:12.132Z,8.40
2019-02-28T03:08:38.282Z,8.93
2019-02-28T03:11:08.391Z,8.00
2019-02-28T03:13:44.015Z,8.00
2019-02-28T03:16:25.489Z,7.77
2019-02-28T03:18:58.168Z,7.70
2019-02-28T03:21:26.382Z,7.20
2019-02-28T03:23:57.626Z,7.23
2019-02-28T03:26:28.863Z,7.37
2019-02-28T03:29:07.506Z,6.50
2019-02-28T03:31:32.246Z,6.70
2019-02-28T03:34:11.336Z,6.90
2019-02-28T03:36:35.257Z,6.93
2019-02-28T03:39:07.211Z,6.80
2019-02-28T03:41:37.271Z,6.80
2019-02-28T03:44:10.114Z,6.40
2019-02-28T03:46:47.054Z,7.47
2019-02-28T03:49:16.193Z,6.00
2019-02-28T03:51:46.229Z,6.70
2019-02-28T03:54:18.054Z,6.60
2019-02-28T03:56:52.820Z,6.50
2019-02-28T03:59:20.228Z,7.73
2019-02-28T04:01:50.404Z,7.40
2019-02-28T04:04:24.869Z,6.20
2019-02-28T04:06:59.246Z,6.83
2019-02-28T04:09:30.411Z,6.63
2019-02-28T04:12:07.259Z,6.63
2019-02-28T04:14:33.065Z,9.43
2019-02-28T04:17:03.891Z,6.30
2019-02-28T04:19:34.041Z,8.00
2019-02-28T04:22:05.749Z,7.73
2019-02-28T04:24:36.925Z,10.27
2019-02-28T04:27:07.886Z,11.40
2019-02-28T04:29:38.073Z,10.50
2019-02-28T04:32:08.174Z,8.50
2019-02-28T04:34:38.268Z,7.50
2019-02-28T04:37:10.112Z,7.50
2019-02-28T04:39:40.182Z,8.13
2019-02-28T04:42:10.326Z,8.13
2019-02-28T04:44:40.492Z,9.97
2019-02-28T04:47:13.709Z,9.40
2019-02-28T04:49:43.836Z,8.53
2019-02-28T04:52:13.825Z,7.93
2019-02-28T04:54:43.835Z,8.37
2019-02-28T04:57:17.335Z,9.63
2019-02-28T04:59:46.710Z,11.07
2019-02-28T05:02:19.943Z,10.90
2019-02-28T05:04:54.705Z,13.97
2019-02-28T05:07:26.293Z,13.53
2019-02-28T05:09:57.773Z,11.47
2019-02-28T05:12:27.851Z,9.03
2019-02-28T05:15:02.517Z,12.43
2019-02-28T05:17:34.419Z,12.40
2019-02-28T05:20:07.318Z,9.23
2019-02-28T05:22:36.247Z,9.80
2019-02-28T05:25:06.359Z,9.70
2019-02-28T05:27:37.947Z,9.03
2019-02-28T05:30:09.931Z,7.60
2019-02-28T05:32:40.075Z,6.27
2019-02-28T05:35:10.215Z,7.50
2019-02-28T05:37:46.409Z,7.37
2019-02-28T05:40:14.264Z,7.67
2019-02-28T05:42:44.249Z,6.30
2019-02-28T05:45:15.703Z,5.77
2019-02-28T05:47:47.560Z,6.30
2019-02-28T05:50:17.712Z,5.87
2019-02-28T05:52:47.827Z,7.10
2019-02-28T05:55:25.617Z,6.30
2019-02-28T05:57:53.977Z,7.00
2019-02-28T06:00:29.959Z,6.70
2019-02-28T06:03:04.532Z,6.80
2019-02-28T06:05:31.144Z,6.53
2019-02-28T06:08:03.555Z,6.27
2019-02-28T06:10:35.935Z,6.23
2019-02-28T06:13:15.321Z,6.70
2019-02-28T06:15:49.338Z,6.70
2019-02-28T06:18:22.724Z,7.93
2019-02-28T06:20:55.862Z,7.40
2019-02-28T06:23:30.115Z,5.43
2019-02-28T06:26:02.642Z,5.70
2019-02-28T06:28:34.338Z,5.83
2019-02-28T06:31:03.705Z,5.70
2019-02-28T06:33:36.193Z,6.23
2019-02-28T06:36:07.122Z,6.10
2019-02-28T06:38:38.421Z,6.70
2019-02-28T06:41:09.678Z,6.10
2019-02-28T06:43:40.928Z,5.87
2019-02-28T06:46:12.196Z,6.90
2019-02-28T06:48:47.978Z,7.83
2019-02-28T06:51:18.604Z,9.00
2019-02-28T06:53:48.738Z,9.77
2019-02-28T06:56:21.878Z,8.50
2019-02-28T06:58:51.904Z,11.73
2019-02-28T07:01:29.579Z,9.73
2019-02-28T07:03:58.648Z,8.23
2019-02-28T07:06:35.690Z,8.17
2019-02-28T07:09:03.804Z,8.70
2019-02-28T07:11:33.876Z,6.50
2019-02-28T07:14:03.941Z,6.70
2019-02-28T07:16:38.026Z,7.00
2019-02-28T07:19:08.264Z,7.13
2019-02-28T07:21:42.981Z,7.80
2019-02-28T07:24:11.256Z,7.37
2019-02-28T07:26:42.725Z,7.90
2019-02-28T07:29:12.824Z,8.30
2019-02-28T07:31:42.911Z,7.33
2019-02-28T07:34:19.682Z,8.30
2019-02-28T07:36:48.073Z,10.03
2019-02-28T07:39:18.185Z,11.47
2019-02-28T07:41:52.399Z,19.63
2019-02-28T07:44:27.948Z,13.23
2019-02-28T07:46:59.121Z,9.60
2019-02-28T07:49:35.826Z,4.47
2019-02-28T07:52:04.016Z,2.33
2019-02-28T07:54:35.444Z,2.03
2019-02-28T07:57:05.564Z,2.60
2019-02-28T07:59:40.979Z,2.87
2019-02-28T08:02:08.716Z,2.10
2019-02-28T08:04:38.885Z,3.60
2019-02-28T08:07:11.489Z,3.40
2019-02-28T08:09:41.523Z,2.90
2019-02-28T08:12:12.917Z,3.13
2019-02-28T08:14:43.718Z,3.70
2019-02-28T08:17:14.811Z,3.63
2019-02-28T08:19:46.849Z,4.07
2019-02-28T08:22:23.248Z,4.40
2019-02-28T08:24:48.441Z,5.13
2019-02-28T08:27:18.598Z,4.30
2019-02-28T08:29:48.704Z,5.40
2019-02-28T08:32:18.875Z,4.60
2019-02-28T08:34:49.050Z,3.93
2019-02-28T08:37:20.136Z,4.77
2019-02-28T08:39:50.606Z,4.47
2019-02-28T08:42:20.713Z,4.77
2019-02-28T08:44:50.910Z,4.60
2019-02-28T08:47:21.820Z,5.30
2019-02-28T08:49:52.059Z,5.37
2019-02-28T08:52:22.204Z,5.67
2019-02-28T08:54:52.374Z,5.37
2019-02-28T08:57:25.679Z,5.27
2019-02-28T08:59:56.339Z,5.60
2019-02-28T09:02:25.993Z,6.00
2019-02-28T09:04:56.080Z,5.83
2019-02-28T09:07:26.114Z,5.60
2019-02-28T09:09:56.127Z,5.87
2019-02-28T09:12:26.244Z,6.20
2019-02-28T09:14:56.365Z,6.27
2019-02-28T09:17:26.428Z,6.50
2019-02-28T09:19:56.420Z,6.80
2019-02-28T09:22:27.454Z,6.70
2019-02-28T09:24:58.322Z,6.43
2019-02-28T09:27:28.415Z,6.37
2019-02-28T09:29:58.433Z,6.87
2019-02-28T09:32:28.434Z,6.90
2019-02-28T09:34:58.523Z,6.93
2019-02-28T09:37:29.810Z,7.13
2019-02-28T09:40:00.414Z,8.60
2019-02-28T09:42:30.501Z,9.07
2019-02-28T09:45:06.818Z,6.70
2019-02-28T09:47:32.387Z,7.10
2019-02-28T09:50:02.507Z,6.27
2019-02-28T09:52:32.621Z,6.50
2019-02-28T09:55:02.786Z,7.00
2019-02-28T09:57:32.873Z,6.67
2019-02-28T10:00:02.952Z,7.70
2019-02-28T10:02:33.038Z,6.93
2019-02-28T10:05:06.570Z,7.47
2019-02-28T10:07:35.115Z,7.23
2019-02-28T10:10:05.998Z,7.40
2019-02-28T10:12:36.041Z,8.00
2019-02-28T10:15:07.474Z,6.77
2019-02-28T10:17:37.621Z,7.60
2019-02-28T10:20:10.919Z,7.90
2019-02-28T10:22:40.975Z,7.80
2019-02-28T10:25:11.343Z,8.07
2019-02-28T10:27:41.331Z,8.73
2019-02-28T10:30:15.946Z,8.80
2019-02-28T10:32:45.593Z,8.60
2019-02-28T10:35:15.782Z,8.70
2019-02-28T10:37:45.879Z,8.63
2019-02-28T10:40:18.726Z,9.00
2019-02-28T10:42:49.512Z,9.73
2019-02-28T10:45:19.682Z,8.70
2019-02-28T10:47:50.065Z,8.90
2019-02-28T10:50:21.719Z,9.40
2019-02-28T10:52:51.801Z,8.63
2019-02-28T10:55:24.623Z,8.60
2019-02-28T10:57:54.758Z,8.23
2019-02-28T11:00:32.903Z,8.83
2019-02-28T11:03:02.883Z,9.00
2019-02-28T11:05:34.008Z,7.90
2019-02-28T11:08:04.608Z,8.77
2019-02-28T11:10:39.026Z,8.73
2019-02-28T11:13:12.355Z,8.23
2019-02-28T11:15:47.947Z,7.80
2019-02-28T11:18:14.972Z,8.40
2019-02-28T11:20:46.895Z,8.60
2019-02-28T11:23:18.303Z,8.00
2019-02-28T11:28:31.368Z,7.43
2019-02-28T11:31:01.745Z,7.50
2019-02-28T11:33:32.920Z,7.67
2019-02-28T11:36:04.164Z,7.50
2019-02-28T11:38:34.256Z,7.67
2019-02-28T11:41:04.535Z,7.37
2019-02-28T11:43:38.429Z,7.50
2019-02-28T11:46:09.615Z,7.93
2019-02-28T11:48:39.696Z,6.73
2019-02-28T11:51:09.788Z,7.67
2019-02-28T11:53:40.587Z,7.37
2019-02-28T11:56:10.935Z,7.30
2019-02-28T11:58:42.623Z,6.73
2019-02-28T12:01:14.062Z,7.20
2019-02-28T12:03:44.114Z,7.30
2019-02-28T12:06:14.287Z,7.20
2019-02-28T12:08:44.894Z,8.77
2019-02-28T12:11:15.961Z,8.47
2019-02-28T12:13:46.061Z,9.20
2019-02-28T12:16:19.256Z,7.80
2019-02-28T12:18:51.067Z,9.23
2019-02-28T12:21:22.762Z,8.57
2019-02-28T12:23:57.373Z,8.80
2019-02-28T12:26:26.397Z,9.33
2019-02-28T12:28:58.043Z,7.93
2019-02-28T12:31:28.229Z,7.10
2019-02-28T12:33:59.946Z,7.40
2019-02-28T12:36:30.021Z,7.10
2019-02-28T12:39:03.375Z,7.43
2019-02-28T12:41:33.517Z,7.63
2019-02-28T12:44:07.870Z,6.63
2019-02-28T12:46:38.374Z,7.47
2019-02-28T12:49:08.463Z,6.57
2019-02-28T12:51:39.660Z,7.60
2019-02-28T12:54:10.445Z,7.70
2019-02-28T12:56:40.547Z,7.10
2019-02-28T12:59:10.933Z,6.70
2019-02-28T13:01:41.078Z,7.60
2019-02-28T13:04:11.153Z,6.73
2019-02-28T13:06:41.263Z,6.10
2019-02-28T13:09:13.699Z,6.57
2019-02-28T13:11:43.433Z,7.53
2019-02-28T13:14:13.516Z,6.07
2019-02-28T13:16:43.581Z,7.50
2019-02-28T13:19:16.403Z,6.10
2019-02-28T13:21:47.864Z,5.47
2019-02-28T13:24:18.117Z,7.70
2019-02-28T13:26:48.112Z,7.57
2019-02-28T13:29:18.118Z,6.30
2019-02-28T13:31:48.234Z,6.70
2019-02-28T13:34:19.926Z,6.70
2019-02-28T13:36:50.099Z,7.90
2019-02-28T13:39:23.490Z,6.20
2019-02-28T13:41:53.765Z,7.43
2019-02-28T13:44:27.056Z,7.17
2019-02-28T13:46:57.378Z,7.40
2019-02-28T13:49:28.824Z,8.30
2019-02-28T13:51:58.840Z,7.20
2019-02-28T13:54:28.856Z,6.73
2019-02-28T13:56:58.929Z,7.43
2019-02-28T13:59:31.870Z,6.90
2019-02-28T14:02:00.881Z,7.43
2019-02-28T14:04:32.886Z,6.97
2019-02-28T14:07:07.332Z,6.67
2019-02-28T14:09:35.921Z,7.97
2019-02-28T14:12:06.002Z,6.33
2019-02-28T14:14:38.915Z,7.03
2019-02-28T14:17:09.853Z,7.33
2019-02-28T14:19:39.959Z,7.27
2019-02-28T14:22:11.552Z,7.77
2019-02-28T14:24:41.873Z,8.57
2019-02-28T14:27:11.885Z,7.73
2019-02-28T14:29:48.060Z,8.93
2019-02-28T14:32:14.601Z,8.03
2019-02-28T14:34:44.679Z,7.63
2019-02-28T14:37:16.822Z,8.00
2019-02-28T14:39:46.960Z,8.53
2019-02-28T14:42:16.956Z,8.73
2019-02-28T14:44:46.943Z,7.30
2019-02-28T14:47:17.049Z,8.70
2019-02-28T14:49:47.053Z,9.27
2019-02-28T14:52:17.141Z,7.40
2019-02-28T14:54:47.183Z,10.00
2019-02-28T14:57:17.758Z,8.90
2019-02-28T14:59:47.865Z,9.50
2019-02-28T15:02:18.328Z,9.37
2019-02-28T15:04:48.351Z,10.40
2019-02-28T15:07:18.425Z,10.47
2019-02-28T15:09:48.435Z,11.80
2019-02-28T15:12:20.261Z,10.37
2019-02-28T15:14:50.328Z,10.83
2019-02-28T15:17:20.464Z,9.80
2019-02-28T15:19:57.062Z,11.50
2019-02-28T15:22:25.802Z,12.57
2019-02-28T15:24:55.876Z,11.07
2019-02-28T15:27:25.911Z,10.47
2019-02-28T15:29:58.900Z,10.80
2019-02-28T15:32:27.802Z,11.07
2019-02-28T15:35:01.374Z,10.90
2019-02-28T15:37:34.821Z,9.70
2019-02-28T15:40:03.133Z,10.40
2019-02-28T15:42:33.266Z,9.27
2019-02-28T15:45:04.107Z,10.10
2019-02-28T15:47:35.292Z,10.03
2019-02-28T15:50:06.254Z,10.90
2019-02-28T15:52:36.721Z,10.80
2019-02-28T15:55:09.589Z,11.17
2019-02-28T15:57:39.899Z,10.70
2019-02-28T16:00:17.443Z,10.83
2019-02-28T16:02:47.913Z,9.60
2019-02-28T16:05:23.797Z,10.73
2019-02-28T16:07:56.143Z,9.80
2019-02-28T16:10:28.518Z,10.43
2019-02-28T16:12:59.742Z,10.80
2019-02-28T16:15:29.936Z,10.43
2019-02-28T16:18:02.721Z,10.83
2019-02-28T16:20:32.896Z,10.47
2019-02-28T16:23:03.135Z,10.60
2019-02-28T16:25:36.930Z,10.73
2019-02-28T16:28:09.115Z,10.80
2019-02-28T16:30:39.869Z,11.70
2019-02-28T16:33:10.028Z,9.33
2019-02-28T16:35:40.053Z,9.90
2019-02-28T16:38:11.228Z,11.10
2019-02-28T16:40:42.611Z,10.13
2019-02-28T16:43:12.774Z,9.83
2019-02-28T16:45:46.333Z,10.90
2019-02-28T16:48:18.006Z,10.40
2019-02-28T16:50:53.677Z,10.20
2019-02-28T16:53:23.829Z,10.30
2019-02-28T16:55:58.312Z,11.00
2019-02-28T16:58:31.171Z,9.90
2019-02-28T17:01:01.181Z,10.90
2019-02-28T17:03:31.382Z,12.10
2019-02-28T17:06:02.241Z,11.57
2019-02-28T17:08:43.128Z,11.33
2019-02-28T17:11:14.625Z,9.30
2019-02-28T17:13:51.323Z,9.53
2019-02-28T17:16:43.413Z,10.20
2019-02-28T17:19:15.287Z,9.07
2019-02-28T17:21:45.365Z,11.03
2019-02-28T17:24:37.319Z,9.83
2019-02-28T17:27:21.713Z,9.97
2019-02-28T17:30:08.320Z,8.97
2019-02-28T17:32:41.524Z,8.07
2019-02-28T17:35:12.741Z,7.43
2019-02-28T17:37:42.818Z,8.30
2019-02-28T17:40:15.607Z,8.67
2019-02-28T17:42:46.402Z,8.70
2019-02-28T17:45:24.519Z,8.53
2019-02-28T17:48:48.791Z,8.93
2019-02-28T17:51:27.597Z,8.23
2019-02-28T17:54:24.446Z,8.80
2019-02-28T17:57:53.725Z,8.63
2019-02-28T18:00:51.848Z,9.23
2019-02-28T18:03:56.889Z,7.80
2019-02-28T18:07:23.709Z,9.03
2019-02-28T18:10:47.940Z,9.73
2019-02-28T18:13:37.331Z,9.30
2019-02-28T18:17:02.146Z,10.73
2019-02-28T18:20:04.114Z,9.20
2019-02-28T18:23:05.048Z,11.70
2019-02-28T18:26:02.269Z,10.60
2019-02-28T18:28:43.986Z,9.93
2019-02-28T18:31:22.250Z,9.33
2019-02-28T18:34:04.198Z,10.23
2019-02-28T18:36:34.392Z,12.23
2019-02-28T18:39:11.480Z,11.90
2019-02-28T18:41:42.232Z,12.60
2019-02-28T18:44:12.869Z,12.70
2019-02-28T18:46:45.002Z,10.83
2019-02-28T18:49:17.060Z,12.10
2019-02-28T18:51:49.947Z,10.77
2019-02-28T18:54:21.147Z,11.50
2019-02-28T18:56:53.028Z,11.60
2019-02-28T18:59:23.129Z,11.77
2019-02-28T19:01:53.230Z,11.73
2019-02-28T19:04:23.328Z,10.60
2019-02-28T19:06:53.377Z,11.17
2019-02-28T19:09:24.681Z,10.30
2019-02-28T19:11:54.854Z,10.60
2019-02-28T19:14:24.982Z,10.90
2019-02-28T19:16:55.123Z,10.77
2019-02-28T19:19:25.221Z,11.87
2019-02-28T19:21:55.401Z,11.40
2019-02-28T19:24:25.520Z,13.87
2019-02-28T19:26:55.735Z,15.23
2019-02-28T19:29:25.755Z,13.47
2019-02-28T19:31:55.838Z,15.03
2019-02-28T19:34:25.977Z,14.40
2019-02-28T19:36:56.089Z,12.40
2019-02-28T19:39:26.197Z,13.53
2019-02-28T19:41:56.411Z,12.47
2019-02-28T19:44:26.597Z,13.30
2019-02-28T19:46:56.717Z,12.70
2019-02-28T19:49:26.990Z,11.70
2019-02-28T19:51:57.273Z,12.80
2019-02-28T19:54:27.445Z,12.97
2019-02-28T19:56:57.533Z,12.50
2019-02-28T19:59:27.816Z,14.93
2019-02-28T20:01:58.155Z,17.07
2019-02-28T20:04:28.207Z,14.20
2019-02-28T20:06:58.331Z,13.97
2019-02-28T20:09:28.523Z,12.37
2019-02-28T20:12:00.567Z,13.43
2019-02-28T20:14:30.324Z,12.83
2019-02-28T20:17:00.404Z,13.17
2019-02-28T20:19:30.524Z,13.80
2019-02-28T20:22:00.654Z,13.40
2019-02-28T20:24:30.845Z,13.43
2019-02-28T20:27:01.032Z,12.50
2019-02-28T20:29:31.204Z,13.40
2019-02-28T20:32:01.317Z,14.57
2019-02-28T20:34:31.505Z,13.77
2019-02-28T20:37:01.704Z,13.50
2019-02-28T20:39:32.008Z,12.57
2019-02-28T20:42:03.317Z,13.60
2019-02-28T20:44:33.394Z,13.10
2019-02-28T20:47:03.576Z,13.20
2019-02-28T20:49:33.747Z,13.37
2019-02-28T20:52:03.902Z,12.80
2019-02-28T20:54:34.260Z,12.87
2019-02-28T20:57:04.622Z,12.13
2019-02-28T20:59:35.062Z,12.57
2019-02-28T21:02:05.144Z,12.90
2019-02-28T21:04:36.336Z,13.07
2019-02-28T21:07:06.645Z,12.80
2019-02-28T21:09:44.759Z,13.17
2019-02-28T21:12:08.626Z,12.47
2019-02-28T21:14:38.759Z,12.60
2019-02-28T21:17:09.143Z,13.47
2019-02-28T21:19:39.239Z,13.83
2019-02-28T21:22:09.311Z,13.13
2019-02-28T21:24:39.439Z,14.07
2019-02-28T21:27:09.616Z,13.77
2019-02-28T21:29:39.768Z,14.03
2019-02-28T21:32:09.890Z,13.50
2019-02-28T21:34:39.968Z,14.57
2019-02-28T21:37:10.128Z,13.73
2019-02-28T21:39:40.219Z,13.90
2019-02-28T21:42:10.319Z,12.83
2019-02-28T21:44:40.406Z,12.70
2019-02-28T21:47:10.503Z,13.80
2019-02-28T21:49:40.639Z,13.50
2019-02-28T21:52:10.886Z,14.90
2019-02-28T21:54:41.029Z,14.83
2019-02-28T21:57:11.109Z,15.97
2019-02-28T21:59:41.117Z,17.07
2019-02-28T22:02:11.235Z,16.43
2019-02-28T22:04:41.339Z,15.73
2019-02-28T22:07:11.352Z,17.40
2019-02-28T22:09:41.450Z,17.60
2019-02-28T22:12:11.573Z,16.80
2019-02-28T22:14:41.651Z,17.10
2019-02-28T22:17:11.745Z,16.93
2019-02-28T22:19:41.834Z,16.57
2019-02-28T22:22:14.809Z,16.60
2019-02-28T22:24:44.903Z,17.80
2019-02-28T22:27:15.034Z,16.87
2019-02-28T22:29:45.377Z,16.33
2019-02-28T22:32:26.779Z,15.47
2019-02-28T22:35:02.404Z,17.43
2019-02-28T22:37:32.566Z,16.83
2019-02-28T22:40:02.653Z,15.80
2019-02-28T22:42:32.744Z,15.90
2019-02-28T22:45:02.753Z,15.77
2019-02-28T22:47:32.858Z,16.13
2019-02-28T22:50:02.955Z,18.20
2019-02-28T22:52:33.050Z,15.60
2019-02-28T22:55:03.236Z,15.70
2019-02-28T22:57:34.322Z,15.40
2019-02-28T23:00:05.962Z,16.70
2019-02-28T23:02:36.122Z,15.50
2019-02-28T23:05:08.143Z,15.23
2019-02-28T23:07:38.244Z,16.80
2019-02-28T23:10:09.866Z,14.60
2019-02-28T23:12:39.884Z,15.93
2019-02-28T23:15:09.956Z,15.37
2019-02-28T23:17:44.014Z,14.97
2019-02-28T23:20:14.364Z,13.53
2019-02-28T23:22:45.928Z,13.57
2019-02-28T23:25:17.336Z,12.87
2019-02-28T23:27:47.739Z,11.07
2019-02-28T23:30:56.274Z,12.47
2019-02-28T23:33:26.282Z,12.00
2019-02-28T23:35:56.457Z,11.93
2019-02-28T23:38:29.463Z,12.63
2019-02-28T23:41:02.461Z,13.23
2019-02-28T23:43:33.695Z,13.33
2019-02-28T23:46:05.066Z,13.47
2019-02-28T23:48:37.929Z,14.63
2019-02-28T23:51:09.108Z,13.47
2019-02-28T23:53:39.249Z,14.77
2019-02-28T23:56:10.608Z,13.30
2019-02-28T23:58:41.710Z,14.33
